| time (UTC) | temp F | wind direction | speed MPH | gust MPH | rain 1hr in | rain 24hr in | rain mn in | humidity % | barometer mb |
| 20260504050017 | 59 | 213 | 0.0 | 5.0 | 0.00 | 0.00 | 0.00 | 61 | 1006.0 |
| 20260504044532 | 59 | 209 | 1.0 | 7.0 | 0.00 | 0.00 | 0.00 | 60 | 1005.9 |
| 20260504043020 | 59 | 215 | 0.0 | 8.0 | 0.00 | 0.00 | 0.00 | 60 | 1005.9 |
| 20260504041515 | 59 | 195 | 0.0 | 3.0 | 0.00 | 0.00 | 0.00 | 60 | 1006.0 |
| 20260504040012 | 60 | 225 | 0.0 | 4.0 | 0.00 | 0.00 | 0.00 | 60 | 1005.9 |
| 20260504034524 | 60 | 193 | 0.0 | 5.0 | 0.00 | 0.00 | 0.00 | 59 | 1006.1 |
| 20260504033012 | 60 | 218 | 1.0 | 4.0 | 0.00 | 0.00 | 0.00 | 58 | 1006.3 |
| 20260504031514 | 61 | 205 | 1.0 | 4.0 | 0.00 | 0.00 | 0.00 | 58 | 1006.4 |
| 20260504030014 | 61 | 194 | 1.0 | 6.0 | 0.00 | 0.00 | 0.00 | 57 | 1006.4 |
| 20260504024518 | 62 | 225 | 1.0 | 3.0 | 0.00 | 0.00 | 0.00 | 56 | 1006.5 |
| 20260504023014 | 62 | 234 | 0.0 | 1.0 | 0.00 | 0.00 | 0.00 | 56 | 1006.5 |
| 20260504021513 | 62 | 234 | 0.0 | 2.0 | 0.00 | 0.00 | 0.00 | 55 | 1006.4 |
| 20260504020016 | 62 | 234 | 0.0 | 2.0 | 0.00 | 0.00 | 0.00 | 54 | 1006.3 |
| 20260504014516 | 62 | 238 | 0.0 | 0.0 | 0.00 | 0.00 | 0.00 | 53 | 1006.2 |
| 20260504013022 | 63 | 238 | 0.0 | 0.0 | 0.00 | 0.00 | 0.00 | 51 | 1005.9 |
| 20260504011516 | 64 | 238 | 0.0 | 0.0 | 0.00 | 0.00 | 0.00 | 49 | 1005.8 |
| 20260504010016 | 66 | 238 | 0.0 | 3.0 | 0.00 | 0.00 | 0.00 | 47 | 1005.7 |
| 20260504004516 | 66 | 224 | 0.0 | 2.0 | 0.00 | 0.00 | 0.00 | 45 | 1005.6 |
| 20260504003011 | 67 | 246 | 0.0 | 2.0 | 0.00 | 0.00 | 0.00 | 44 | 1005.8 |
| 20260504001518 | 68 | 242 | 0.0 | 7.0 | 0.00 | 0.00 | 0.00 | 43 | 1005.7 |
| 20260504000020 | 68 | 240 | 1.0 | 9.0 | 0.00 | 0.00 | 0.00 | 42 | 1005.8 |
| 20260503234520 | 69 | 196 | 0.0 | 11.0 | 0.00 | 0.00 | 0.00 | 41 | 1005.8 |
| 20260503233019 | 69 | 244 | 1.0 | 16.0 | 0.00 | 0.00 | 0.00 | 39 | 1005.8 |
| 20260503231516 | 70 | 295 | 2.0 | 13.0 | 0.00 | 0.00 | 0.00 | 41 | 1005.8 |
| 20260503230021 | 70 | 281 | 2.0 | 17.0 | 0.00 | 0.00 | 0.00 | 40 | 1005.9 |
| 20260503224519 | 69 | 188 | 4.0 | 15.0 | 0.00 | 0.00 | 0.00 | 41 | 1006.1 |
| 20260503223021 | 69 | 210 | 3.0 | 21.0 | 0.00 | 0.00 | 0.00 | 40 | 1006.2 |
| 20260503221531 | 69 | 211 | 5.0 | 14.0 | 0.00 | 0.00 | 0.00 | 40 | 1006.2 |
| 20260503220019 | 68 | 201 | 3.0 | 20.0 | 0.00 | 0.00 | 0.00 | 41 | 1006.3 |
| 20260503214525 | 68 | 175 | 4.0 | 17.0 | 0.00 | 0.00 | 0.00 | 41 | 1006.5 |
| 20260503213030 | 68 | 166 | 4.0 | 19.0 | 0.00 | 0.00 | 0.00 | 42 | 1006.8 |
| 20260503211525 | 67 | 130 | 5.0 | 15.0 | 0.00 | 0.00 | 0.00 | 41 | 1007.0 |
| 20260503210021 | 68 | 232 | 6.0 | 20.0 | 0.00 | 0.00 | 0.00 | 40 | 1007.2 |
| 20260503204524 | 66 | 252 | 3.0 | 21.0 | 0.00 | 0.00 | 0.00 | 42 | 1007.5 |
| 20260503203024 | 67 | 188 | 5.0 | 17.0 | 0.00 | 0.00 | 0.00 | 42 | 1008.0 |
| 20260503201523 | 66 | 160 | 6.0 | 20.0 | 0.00 | 0.00 | 0.00 | 46 | 1008.2 |
| 20260503200013 | 65 | 172 | 8.0 | 21.0 | 0.00 | 0.00 | 0.00 | 47 | 1008.7 |
| 20260503194526 | 64 | 227 | 6.0 | 18.0 | 0.00 | 0.00 | 0.00 | 49 | 1009.1 |
| 20260503193022 | 63 | 169 | 4.0 | 16.0 | 0.00 | 0.00 | 0.00 | 51 | 1009.2 |
| 20260503191504 | 63 | 163 | 3.0 | 16.0 | 0.00 | 0.00 | 0.00 | 50 | 1009.2 |
| 20260503190017 | 62 | 196 | 6.0 | 19.0 | 0.00 | 0.00 | 0.00 | 50 | 1009.3 |
| 20260503184520 | 62 | 202 | 2.0 | 20.0 | 0.00 | 0.00 | 0.00 | 51 | 1009.4 |
| 20260503183030 | 61 | 196 | 6.0 | 16.0 | 0.00 | 0.00 | 0.00 | 50 | 1009.5 |
| 20260503181542 | 60 | 204 | 6.0 | 22.0 | 0.00 | 0.00 | 0.00 | 52 | 1010.0 |
| 20260503180008 | 58 | 192 | 5.0 | 25.0 | 0.00 | 0.00 | 0.00 | 55 | 1010.2 |
| 20260503174511 | 58 | 172 | 5.0 | 17.0 | 0.00 | 0.00 | 0.00 | 55 | 1010.8 |
| 20260503173037 | 58 | 200 | 5.0 | 20.0 | 0.00 | 0.00 | 0.00 | 57 | 1011.2 |
| 20260503171520 | 56 | 153 | 4.0 | 16.0 | 0.00 | 0.00 | 0.00 | 61 | 1011.8 |
| 20260503081521 | 47 | 208 | 0.0 | 6.0 | 0.00 | 0.00 | 0.00 | 54 | 1014.3 |
| 20260503071524 | 46 | 224 | 0.0 | 3.0 | 0.00 | 0.00 | 0.00 | 55 | 1014.7 |